Time;durP1;ratioP1;P1;durP2;ratioP2;P2;SDS_P1;SDS_P2;PMS_P1;PMS_P2;Temp;Humidity;BMP_temperature;BMP_pressure;BME280_temperature;BME280_humidity;BME280_pressure;Samples;Min_cycle;Max_cycle;Signal;HPM_P1;HPM_P2
2023/11/09 00:01:31;;;;;;;4.70;2.63;;;;;;;5.04;100.00;95958.31;5035259;28;20635;-69
2023/11/09 00:03:58;;;;;;;5.60;2.50;;;;;;;4.86;100.00;95960.13;5034259;28;20208;-69
2023/11/09 00:06:24;;;;;;;3.53;1.97;;;;;;;4.81;100.00;95958.09;5034549;28;20231;-71
2023/11/09 00:08:52;;;;;;;4.17;2.50;;;;;;;5.02;100.00;95949.81;5036091;28;20210;-72
2023/11/09 00:11:20;;;;;;;5.93;2.57;;;;;;;4.86;100.00;95952.28;5035146;28;20705;-72
2023/11/09 00:13:46;;;;;;;3.50;2.57;;;;;;;4.72;100.00;95956.38;5034398;28;20280;-71
2023/11/09 00:16:13;;;;;;;4.23;2.43;;;;;;;4.73;100.00;95947.59;5035490;28;20238;-70
2023/11/09 00:18:40;;;;;;;4.63;2.40;;;;;;;4.63;100.00;95939.00;5035706;28;20214;-68
2023/11/09 00:21:07;;;;;;;3.90;2.30;;;;;;;4.63;100.00;95941.59;5034756;28;21003;-70
2023/11/09 00:23:33;;;;;;;4.23;2.10;;;;;;;4.67;100.00;95942.94;5037054;28;20230;-68
2023/11/09 00:26:03;;;;;;;4.07;2.27;;;;;;;4.85;100.00;95944.59;5039277;28;20597;-70
2023/11/09 00:28:30;;;;;;;3.23;2.30;;;;;;;4.66;100.00;95942.13;5039143;28;20322;-68
2023/11/09 00:30:56;;;;;;;4.93;2.60;;;;;;;4.34;100.00;95931.38;5039007;28;20205;-69
2023/11/09 00:33:23;;;;;;;4.33;2.53;;;;;;;4.34;100.00;95935.75;5038683;28;20211;-69
2023/11/09 00:35:49;;;;;;;5.63;2.63;;;;;;;4.58;100.00;95925.56;5038704;28;20239;-69
2023/11/09 00:38:16;;;;;;;6.43;2.60;;;;;;;4.57;100.00;95935.19;5038774;28;21225;-70
2023/11/09 00:40:42;;;;;;;4.93;2.40;;;;;;;4.48;100.00;95922.19;5038152;28;20216;-71
2023/11/09 00:43:11;;;;;;;4.13;2.23;;;;;;;4.53;100.00;95926.03;5038771;28;20197;-69
2023/11/09 00:45:38;;;;;;;5.07;2.37;;;;;;;4.48;100.00;95930.03;5038144;28;20212;-69
2023/11/09 00:48:05;;;;;;;4.90;2.73;;;;;;;4.50;100.00;95920.28;5039434;28;20200;-69
2023/11/09 00:50:32;;;;;;;3.37;2.27;;;;;;;4.50;100.00;95921.09;5037835;28;20216;-71
2023/11/09 00:52:59;;;;;;;7.57;2.57;;;;;;;4.49;100.00;95923.84;5038296;28;20254;-72
2023/11/09 00:55:25;;;;;;;4.87;2.80;;;;;;;4.37;100.00;95919.81;5038119;28;20234;-70
2023/11/09 00:57:52;;;;;;;3.40;2.10;;;;;;;4.30;100.00;95923.97;5038362;28;20228;-71
2023/11/09 01:00:20;;;;;;;6.77;2.40;;;;;;;4.30;100.00;95930.03;5038287;28;20208;-71
2023/11/09 01:02:49;;;;;;;3.90;2.20;;;;;;;4.28;100.00;95923.31;5037483;28;20203;-71
2023/11/09 01:05:16;;;;;;;4.97;2.33;;;;;;;4.18;100.00;95919.94;5038944;28;20219;-71
2023/11/09 01:07:42;;;;;;;5.07;2.43;;;;;;;3.77;100.00;95923.03;5037797;28;20238;-71
2023/11/09 01:10:09;;;;;;;4.27;2.40;;;;;;;3.93;100.00;95915.38;5038429;28;20211;-72
2023/11/09 01:12:36;;;;;;;4.00;2.60;;;;;;;3.98;100.00;95914.97;5038113;28;20228;-71
2023/11/09 01:15:02;;;;;;;5.93;2.60;;;;;;;3.96;100.00;95904.69;5038184;28;20211;-70
2023/11/09 01:17:30;;;;;;;4.27;2.07;;;;;;;4.12;100.00;95901.44;5037124;28;20258;-70
2023/11/09 01:19:57;;;;;;;4.40;2.40;;;;;;;4.12;100.00;95898.84;5038471;28;20801;-68
2023/11/09 01:22:23;;;;;;;5.67;2.40;;;;;;;4.07;100.00;95891.44;5038352;28;20223;-70
2023/11/09 01:24:50;;;;;;;4.30;2.30;;;;;;;4.19;100.00;95895.50;5036367;28;20212;-69
2023/11/09 01:27:16;;;;;;;4.80;2.80;;;;;;;4.09;100.00;95897.34;5037833;28;20227;-69
2023/11/09 01:29:43;;;;;;;3.90;2.30;;;;;;;4.06;100.00;95889.81;5038188;28;20217;-69
2023/11/09 01:32:09;;;;;;;3.53;2.20;;;;;;;4.10;100.00;95883.34;5037146;28;20575;-69
2023/11/09 01:34:37;;;;;;;3.73;2.60;;;;;;;4.26;100.00;95886.13;5036157;28;20216;-69
2023/11/09 01:37:10;;;;;;;3.60;2.40;;;;;;;4.13;100.00;95883.06;5037876;28;20237;-70
2023/11/09 01:39:38;;;;;;;4.43;2.07;;;;;;;3.97;100.00;95890.69;5037248;28;20208;-69
2023/11/09 01:42:05;;;;;;;4.47;2.20;;;;;;;4.04;100.00;95886.53;5037968;28;20303;-70
2023/11/09 01:44:33;;;;;;;5.67;2.67;;;;;;;3.91;100.00;95888.66;5037047;28;20640;-71
2023/11/09 01:47:00;;;;;;;4.53;2.40;;;;;;;3.83;100.00;95883.38;5037567;28;20365;-70
2023/11/09 01:49:26;;;;;;;4.30;2.33;;;;;;;3.87;100.00;95879.50;5037780;28;20198;-71
2023/11/09 01:51:56;;;;;;;5.20;2.70;;;;;;;4.05;100.00;95871.69;5037574;28;20416;-69
2023/11/09 01:54:23;;;;;;;4.53;2.23;;;;;;;4.04;100.00;95862.25;5036787;28;20208;-70
2023/11/09 01:56:50;;;;;;;4.67;2.43;;;;;;;3.84;100.00;95864.13;5036510;28;20233;-69
2023/11/09 01:59:18;;;;;;;4.27;2.33;;;;;;;3.92;100.00;95866.03;5037594;28;20231;-71
2023/11/09 02:01:46;;;;;;;3.83;2.40;;;;;;;3.93;100.00;95863.25;5037138;28;20206;-71
2023/11/09 02:04:13;;;;;;;3.93;1.90;;;;;;;3.90;100.00;95857.56;5036427;28;20687;-69
2023/11/09 02:06:41;;;;;;;4.30;2.20;;;;;;;3.91;100.00;95854.78;5036847;28;20258;-69
2023/11/09 02:09:09;;;;;;;5.53;2.50;;;;;;;3.97;100.00;95867.25;5037825;28;20206;-70
2023/11/09 02:11:35;;;;;;;3.63;2.20;;;;;;;3.88;100.00;95864.69;5035712;28;20212;-70
2023/11/09 02:14:02;;;;;;;3.73;2.27;;;;;;;3.81;100.00;95863.63;5037093;28;20288;-68
2023/11/09 02:16:28;;;;;;;4.83;2.37;;;;;;;3.75;100.00;95853.78;5037663;28;20238;-69
2023/11/09 02:18:55;;;;;;;4.43;2.13;;;;;;;3.75;100.00;95849.38;5036530;28;20242;-70
2023/11/09 02:21:23;;;;;;;2.97;2.00;;;;;;;3.89;100.00;95841.06;5037232;28;20210;-70
2023/11/09 02:23:52;;;;;;;3.63;2.10;;;;;;;3.79;100.00;95845.53;5036454;28;20293;-69
2023/11/09 02:26:21;;;;;;;5.20;2.20;;;;;;;4.07;100.00;95860.16;5037009;28;20238;-69
2023/11/09 02:28:47;;;;;;;4.43;2.27;;;;;;;3.69;100.00;95855.19;5037544;28;20202;-71
2023/11/09 02:31:14;;;;;;;3.63;2.10;;;;;;;3.82;100.00;95834.81;5037849;28;20204;-70
2023/11/09 02:33:40;;;;;;;4.87;2.30;;;;;;;3.91;100.00;95840.94;5035601;28;20203;-69
2023/11/09 02:36:08;;;;;;;7.37;2.27;;;;;;;3.81;100.00;95833.16;5036946;28;20600;-70
2023/11/09 02:38:34;;;;;;;3.30;2.10;;;;;;;3.91;100.00;95827.91;5036641;28;20226;-70
2023/11/09 02:41:01;;;;;;;3.27;2.00;;;;;;;3.84;100.00;95837.28;5036581;28;20210;-69
2023/11/09 02:43:30;;;;;;;3.47;2.20;;;;;;;3.87;100.00;95832.59;5036666;28;20199;-70
2023/11/09 02:45:58;;;;;;;3.70;1.97;;;;;;;3.71;100.00;95828.97;5036899;28;20668;-70
2023/11/09 02:48:24;;;;;;;3.17;1.80;;;;;;;3.65;100.00;95822.59;5036867;28;20203;-69
2023/11/09 02:50:51;;;;;;;3.93;2.17;;;;;;;3.82;100.00;95821.78;5035639;28;20208;-69
2023/11/09 02:53:18;;;;;;;3.90;2.20;;;;;;;3.78;100.00;95817.84;5036341;28;20217;-68
2023/11/09 02:55:44;;;;;;;2.70;1.90;;;;;;;3.82;100.00;95806.16;5035574;28;20241;-71
2023/11/09 02:58:11;;;;;;;5.00;1.63;;;;;;;3.70;100.00;95807.34;5036772;28;20222;-69
2023/11/09 03:00:39;;;;;;;4.47;2.23;;;;;;;3.85;100.00;95808.47;5036045;28;20768;-69
2023/11/09 03:03:05;;;;;;;4.50;2.37;;;;;;;3.78;100.00;95807.41;5035876;28;20209;-69
2023/11/09 03:05:32;;;;;;;4.87;2.30;;;;;;;3.73;100.00;95798.41;5035919;28;20201;-69
2023/11/09 03:07:59;;;;;;;3.97;2.17;;;;;;;3.63;100.00;95798.44;5036221;28;20577;-70
2023/11/09 03:10:25;;;;;;;4.67;2.57;;;;;;;3.64;100.00;95794.88;5036005;28;20220;-70
2023/11/09 03:12:52;;;;;;;4.73;2.50;;;;;;;3.68;100.00;95792.81;5035816;28;20205;-70
2023/11/09 03:15:19;;;;;;;5.63;2.70;;;;;;;3.80;100.00;95791.63;5035552;28;21357;-70
2023/11/09 03:17:47;;;;;;;4.23;2.60;;;;;;;3.89;100.00;95781.13;5035508;28;20285;-71
2023/11/09 03:20:14;;;;;;;5.60;2.50;;;;;;;3.75;100.00;95781.63;5035464;28;20205;-70
2023/11/09 03:22:41;;;;;;;5.27;2.80;;;;;;;3.78;100.00;95789.19;5035304;28;20578;-69
2023/11/09 03:25:08;;;;;;;4.27;2.67;;;;;;;3.79;100.00;95783.00;5035974;28;20203;-69
2023/11/09 03:27:35;;;;;;;6.23;3.20;;;;;;;3.83;100.00;95768.72;5033656;28;20319;-69
2023/11/09 03:30:01;;;;;;;3.13;2.07;;;;;;;3.91;100.00;95766.19;5035359;28;20610;-69
2023/11/09 03:32:28;;;;;;;3.30;2.03;;;;;;;3.77;100.00;95771.09;5036592;28;20211;-69
2023/11/09 03:34:56;;;;;;;6.57;2.47;;;;;;;3.95;100.00;95767.53;5034791;28;20215;-70
2023/11/09 03:37:22;;;;;;;3.77;2.27;;;;;;;3.76;100.00;95761.63;5035921;28;20238;-68
2023/11/09 03:39:50;;;;;;;3.20;2.03;;;;;;;3.59;100.00;95764.19;5035402;28;20201;-70
2023/11/09 03:42:17;;;;;;;3.87;2.37;;;;;;;3.65;100.00;95754.00;5035682;28;20293;-70
2023/11/09 03:44:44;;;;;;;4.33;2.20;;;;;;;3.62;100.00;95749.09;5033630;28;20207;-69
2023/11/09 03:47:11;;;;;;;4.57;2.50;;;;;;;3.69;100.00;95750.97;5036004;28;20225;-70
2023/11/09 03:49:41;;;;;;;5.80;2.13;;;;;;;3.96;100.00;95742.25;5035308;28;20203;-70
2023/11/09 03:52:10;;;;;;;3.50;2.00;;;;;;;3.98;100.00;95743.75;5035709;28;20215;-70
2023/11/09 03:54:36;;;;;;;3.30;2.07;;;;;;;3.76;100.00;95743.38;5034540;28;20208;-70
2023/11/09 03:57:03;;;;;;;3.93;1.90;;;;;;;3.63;100.00;95741.13;5036737;28;20218;-69
2023/11/09 03:59:30;;;;;;;4.97;2.50;;;;;;;3.61;100.00;95751.88;5041872;28;20235;-69
2023/11/09 04:01:56;;;;;;;4.67;2.23;;;;;;;3.58;100.00;95757.34;5041637;28;20228;-68
2023/11/09 04:04:23;;;;;;;3.60;2.20;;;;;;;3.54;100.00;95759.44;5041899;28;20206;-69
2023/11/09 04:06:49;;;;;;;5.67;2.20;;;;;;;3.48;100.00;95762.63;5041155;28;20231;-70
2023/11/09 04:09:17;;;;;;;6.90;2.40;;;;;;;3.61;100.00;95759.69;5042192;28;20202;-69
2023/11/09 04:11:44;;;;;;;3.33;1.87;;;;;;;3.54;100.00;95749.03;5040733;28;20219;-70
2023/11/09 04:14:10;;;;;;;3.03;2.03;;;;;;;3.62;100.00;95743.09;5042209;28;20202;-70
2023/11/09 04:16:37;;;;;;;4.20;2.50;;;;;;;3.36;100.00;95732.56;5041204;28;20225;-69
2023/11/09 04:19:03;;;;;;;5.53;2.70;;;;;;;3.13;100.00;95727.84;5041700;28;20226;-69
2023/11/09 04:21:30;;;;;;;4.93;2.93;;;;;;;3.20;100.00;95728.94;5041716;28;20208;-69
2023/11/09 04:23:57;;;;;;;3.97;2.73;;;;;;;3.53;100.00;95728.34;5041202;28;20563;-69
2023/11/09 04:26:24;;;;;;;4.03;2.20;;;;;;;3.62;100.00;95721.25;5041333;28;20259;-70
2023/11/09 04:28:51;;;;;;;5.30;2.47;;;;;;;3.44;100.00;95718.81;5041098;28;20205;-69
2023/11/09 04:31:20;;;;;;;6.43;2.13;;;;;;;3.47;100.00;95715.91;5042298;28;20214;-68
2023/11/09 04:33:47;;;;;;;4.17;2.50;;;;;;;3.54;100.00;95711.72;5040709;28;20205;-68
2023/11/09 04:36:14;;;;;;;6.07;2.70;;;;;;;3.62;100.00;95717.03;5042023;28;20235;-70
2023/11/09 04:38:41;;;;;;;11.37;4.73;;;;;;;3.66;100.00;95708.75;5041528;28;20240;-69
2023/11/09 04:41:12;;;;;;;10.40;5.27;;;;;;;3.61;100.00;95700.56;5040624;28;20202;-69
2023/11/09 04:43:42;;;;;;;8.30;4.17;;;;;;;3.77;100.00;95696.34;5041150;28;20677;-70
2023/11/09 04:46:13;;;;;;;11.80;3.83;;;;;;;3.70;100.00;95690.09;5041908;28;20278;-70
2023/11/09 04:48:44;;;;;;;8.30;4.40;;;;;;;3.60;100.00;95692.91;5041277;28;20202;-69
2023/11/09 04:51:20;;;;;;;9.13;3.77;;;;;;;3.66;100.00;95688.72;5041405;28;20208;-69
2023/11/09 04:53:51;;;;;;;8.63;3.60;;;;;;;3.64;100.00;95689.88;5041927;28;20613;-69
2023/11/09 04:56:32;;;;;;;7.93;3.97;;;;;;;3.72;100.00;95693.34;5040926;28;20254;-69
2023/11/09 04:59:02;;;;;;;6.10;2.87;;;;;;;3.76;100.00;95683.47;5040935;28;20237;-71
2023/11/09 05:06:58;;;;;;;6.43;3.10;;;;;;;3.61;100.00;95678.94;5040819;28;20298;-69
2023/11/09 05:09:27;;;;;;;7.97;3.77;;;;;;;3.54;100.00;95672.66;5038667;28;20326;-69
2023/11/09 05:11:53;;;;;;;9.63;4.50;;;;;;;3.62;100.00;95675.38;5037443;28;20206;-68
2023/11/09 05:14:21;;;;;;;8.97;3.20;;;;;;;3.53;100.00;95682.28;5037896;28;20207;-69
2023/11/09 05:16:48;;;;;;;7.57;3.13;;;;;;;3.45;100.00;95683.97;5038064;28;20241;-68
2023/11/09 05:19:15;;;;;;;5.07;2.80;;;;;;;3.51;100.00;95688.59;5037979;28;20220;-68
2023/11/09 05:21:41;;;;;;;11.30;2.97;;;;;;;3.60;100.00;95690.31;5037573;28;20211;-69
2023/11/09 05:24:08;;;;;;;11.73;3.67;;;;;;;3.62;100.00;95691.00;5037559;28;20668;-70
2023/11/09 05:26:36;;;;;;;6.67;3.20;;;;;;;3.60;100.00;95682.50;5038063;28;20232;-70
2023/11/09 05:29:04;;;;;;;14.23;5.07;;;;;;;3.57;100.00;95682.78;5036497;28;20201;-68
2023/11/09 05:31:34;;;;;;;9.63;3.57;;;;;;;3.71;100.00;95681.28;5038113;28;21098;-69
2023/11/09 05:34:01;;;;;;;14.17;4.97;;;;;;;3.65;100.00;95670.66;5037217;28;20323;-70
2023/11/09 05:36:27;;;;;;;12.27;4.63;;;;;;;3.52;100.00;95667.59;5038250;28;20221;-70
2023/11/09 05:38:55;;;;;;;8.57;3.43;;;;;;;3.62;100.00;95666.56;5036919;28;20226;-70
2023/11/09 05:41:22;;;;;;;8.03;3.43;;;;;;;3.55;100.00;95669.09;5037402;28;20217;-70
2023/11/09 05:43:48;;;;;;;4.87;2.27;;;;;;;3.58;100.00;95655.75;5036686;28;20220;-69
2023/11/09 05:46:15;;;;;;;3.70;1.80;;;;;;;3.50;100.00;95651.31;5037558;28;20263;-68
2023/11/09 05:48:43;;;;;;;5.73;2.57;;;;;;;3.61;100.00;95658.09;5037875;28;20205;-70
2023/11/09 05:51:09;;;;;;;5.57;2.53;;;;;;;3.50;100.00;95661.75;5037199;28;20198;-69
2023/11/09 05:53:36;;;;;;;13.90;3.37;;;;;;;3.53;100.00;95651.00;5037137;28;20203;-69
2023/11/09 05:56:03;;;;;;;8.57;3.20;;;;;;;3.62;100.00;95656.13;5037692;28;20254;-69
2023/11/09 05:58:30;;;;;;;8.53;3.20;;;;;;;3.58;100.00;95653.16;5037780;28;20718;-68
2023/11/09 06:00:56;;;;;;;4.93;2.33;;;;;;;3.48;100.00;95655.03;5037055;28;20243;-67
2023/11/09 06:03:23;;;;;;;8.27;3.27;;;;;;;3.49;100.00;95656.66;5036839;28;20201;-69
2023/11/09 06:05:52;;;;;;;7.40;2.03;;;;;;;3.71;100.00;95660.44;5037099;28;20220;-69
2023/11/09 06:08:19;;;;;;;5.67;2.70;;;;;;;3.61;100.00;95652.88;5038209;28;20257;-69
2023/11/09 06:10:47;;;;;;;4.47;2.13;;;;;;;3.56;100.00;95660.31;5036709;28;20212;-67
2023/11/09 06:13:14;;;;;;;7.40;2.87;;;;;;;3.44;100.00;95664.94;5036883;28;20206;-68
2023/11/09 06:15:41;;;;;;;16.17;2.50;;;;;;;3.40;100.00;95665.34;5037173;28;20205;-69
2023/11/09 06:18:08;;;;;;;6.73;2.90;;;;;;;3.48;100.00;95662.84;5036818;28;20937;-68
2023/11/09 06:20:35;;;;;;;6.73;2.30;;;;;;;3.51;100.00;95659.94;5036128;28;20215;-68
2023/11/09 06:23:03;;;;;;;3.83;2.07;;;;;;;3.62;100.00;95645.72;5036677;28;20215;-69
2023/11/09 06:25:29;;;;;;;3.13;2.27;;;;;;;3.49;100.00;95654.06;5037226;28;20204;-70
2023/11/09 06:27:56;;;;;;;5.30;2.77;;;;;;;3.52;100.00;95648.56;5036735;28;20229;-70
2023/11/09 06:30:22;;;;;;;4.23;2.37;;;;;;;3.56;100.00;95650.72;5036782;28;20230;-69
2023/11/09 06:32:49;;;;;;;5.33;2.57;;;;;;;3.53;100.00;95640.59;5036299;28;20965;-69
2023/11/09 06:35:18;;;;;;;5.20;2.30;;;;;;;3.62;100.00;95645.72;5036367;28;20215;-70
2023/11/09 06:37:45;;;;;;;5.23;2.13;;;;;;;3.51;100.00;95646.91;5036589;28;20637;-69
2023/11/09 06:40:16;;;;;;;6.37;2.60;;;;;;;3.62;100.00;95645.72;5035476;28;20670;-69
2023/11/09 06:42:44;;;;;;;5.20;2.43;;;;;;;3.44;100.00;95661.50;5035962;28;20217;-70
2023/11/09 06:45:11;;;;;;;4.00;1.90;;;;;;;3.39;100.00;95659.34;5036586;28;20209;-70
2023/11/09 06:47:39;;;;;;;7.87;2.70;;;;;;;3.60;100.00;95657.25;5036453;28;20235;-69
2023/11/09 06:50:11;;;;;;;3.60;2.00;;;;;;;3.77;100.00;95662.47;5036264;28;20215;-70
2023/11/09 06:52:39;;;;;;;5.10;2.73;;;;;;;3.68;100.00;95665.16;5037238;28;20212;-68
2023/11/09 06:55:06;;;;;;;4.03;2.33;;;;;;;3.63;100.00;95663.00;5036437;28;20203;-70
2023/11/09 06:57:34;;;;;;;6.43;2.40;;;;;;;3.68;100.00;95671.19;5036041;28;20300;-70
2023/11/09 07:00:05;;;;;;;6.07;3.27;;;;;;;3.54;100.00;95677.88;5036603;28;20694;-70
2023/11/09 07:02:31;;;;;;;9.50;2.70;;;;;;;3.51;100.00;95678.97;5036049;28;20209;-70
2023/11/09 07:04:58;;;;;;;6.30;2.43;;;;;;;3.53;100.00;95671.03;5035613;28;20237;-69
2023/11/09 07:07:24;;;;;;;4.43;2.30;;;;;;;3.61;100.00;95666.72;5036433;28;20227;-68
2023/11/09 07:09:51;;;;;;;4.30;2.33;;;;;;;3.55;100.00;95669.91;5036228;28;20209;-69
2023/11/09 07:12:19;;;;;;;8.80;2.50;;;;;;;3.80;100.00;95669.97;5035618;28;20213;-68
2023/11/09 07:14:46;;;;;;;4.67;2.10;;;;;;;4.03;100.00;95671.16;5035124;28;20743;-70
2023/11/09 07:17:14;;;;;;;6.23;2.17;;;;;;;4.00;100.00;95665.44;5035659;28;20223;-69
2023/11/09 07:19:40;;;;;;;9.17;2.43;;;;;;;3.89;100.00;95666.47;5035119;28;20280;-70
2023/11/09 07:22:09;;;;;;;6.27;2.93;;;;;;;4.15;100.00;95664.75;5035876;28;20210;-69
2023/11/09 07:24:37;;;;;;;13.03;3.77;;;;;;;3.89;100.00;95663.06;5035483;28;21070;-69
2023/11/09 07:27:06;;;;;;;9.87;2.73;;;;;;;3.96;100.00;95664.91;5035252;28;21079;-70
2023/11/09 07:29:33;;;;;;;9.50;2.60;;;;;;;4.21;100.00;95661.50;5035571;28;20206;-70
2023/11/09 07:32:01;;;;;;;7.23;2.53;;;;;;;4.56;100.00;95656.19;5035059;28;20207;-68
2023/11/09 07:34:30;;;;;;;5.13;2.43;;;;;;;4.54;100.00;95652.91;5035484;28;20226;-68
2023/11/09 07:36:56;;;;;;;6.73;2.20;;;;;;;4.57;100.00;95658.66;5035656;28;20222;-70
2023/11/09 07:39:27;;;;;;;5.20;2.40;;;;;;;4.74;100.00;95664.78;5035538;28;20232;-70
2023/11/09 07:41:54;;;;;;;6.23;2.17;;;;;;;4.60;100.00;95662.75;5034772;28;20307;-70
2023/11/09 07:44:21;;;;;;;3.07;1.90;;;;;;;4.74;100.00;95672.59;5035096;28;20303;-68
2023/11/09 07:46:48;;;;;;;6.07;2.17;;;;;;;4.79;100.00;95663.31;5036029;28;20229;-68
2023/11/09 07:49:16;;;;;;;3.30;1.80;;;;;;;5.08;100.00;95651.53;5035128;28;20209;-70
2023/11/09 07:51:43;;;;;;;4.53;2.47;;;;;;;5.16;100.00;95648.94;5034937;28;20329;-71
2023/11/09 07:54:10;;;;;;;3.27;2.10;;;;;;;5.28;100.00;95647.66;5035391;28;20206;-71
2023/11/09 07:56:37;;;;;;;2.60;1.50;;;;;;;5.18;100.00;95654.84;5035466;28;20230;-71
2023/11/09 07:59:03;;;;;;;5.20;2.23;;;;;;;5.28;100.00;95673.78;5035497;28;20242;-68
2023/11/09 08:01:30;;;;;;;5.73;2.17;;;;;;;5.33;100.00;95671.50;5036113;28;20208;-68
2023/11/09 08:03:57;;;;;;;2.10;1.50;;;;;;;5.43;100.00;95663.56;5035088;28;20216;-71
2023/11/09 08:06:26;;;;;;;3.20;1.87;;;;;;;5.61;100.00;95652.00;5035535;28;20779;-69
2023/11/09 08:08:53;;;;;;;4.03;1.50;;;;;;;5.65;100.00;95653.28;5034447;28;20209;-70
2023/11/09 08:11:20;;;;;;;5.17;1.80;;;;;;;5.68;100.00;95659.03;5035413;28;20655;-71
2023/11/09 08:13:47;;;;;;;5.00;2.10;;;;;;;5.75;100.00;95653.97;5034238;28;20208;-69
2023/11/09 08:16:14;;;;;;;4.23;1.97;;;;;;;5.73;100.00;95674.25;5036073;28;20228;-71
2023/11/09 08:18:41;;;;;;;2.67;1.57;;;;;;;5.94;100.00;95672.00;5035100;28;21031;-69
2023/11/09 08:21:09;;;;;;;4.13;1.97;;;;;;;6.08;100.00;95670.38;5035060;28;20781;-69
2023/11/09 08:23:36;;;;;;;4.30;2.00;;;;;;;6.36;100.00;95665.59;5034052;28;20212;-70
2023/11/09 08:26:04;;;;;;;4.90;1.73;;;;;;;6.35;100.00;95651.72;5035383;28;20714;-69
2023/11/09 08:28:30;;;;;;;4.10;2.00;;;;;;;6.28;100.00;95655.97;5035748;28;20209;-69
2023/11/09 08:30:58;;;;;;;2.30;1.60;;;;;;;6.73;100.00;95653.59;5031593;28;20577;-70
2023/11/09 08:33:24;;;;;;;3.00;1.50;;;;;;;6.90;100.00;95647.34;5033424;28;20201;-70
2023/11/09 08:35:53;;;;;;;2.87;1.73;;;;;;;7.05;100.00;95643.84;5032917;28;20961;-68
2023/11/09 08:38:20;;;;;;;5.13;1.60;;;;;;;7.31;100.00;95645.19;5034069;28;20211;-68
2023/11/09 08:40:49;;;;;;;3.73;1.80;;;;;;;7.72;100.00;95640.53;5032144;28;20229;-70
2023/11/09 08:43:16;;;;;;;1.90;1.33;;;;;;;7.42;100.00;95644.81;5033675;28;20613;-70
2023/11/09 08:45:43;;;;;;;2.17;1.50;;;;;;;7.85;100.00;95640.75;5037084;28;20205;-69
2023/11/09 08:48:12;;;;;;;3.10;2.07;;;;;;;8.11;100.00;95652.53;5038016;28;20219;-69
2023/11/09 08:50:40;;;;;;;4.17;1.80;;;;;;;8.23;100.00;95651.97;5036940;28;20266;-70
2023/11/09 08:53:07;;;;;;;2.53;1.53;;;;;;;8.07;100.00;95644.19;5035469;28;20292;-69
2023/11/09 08:55:34;;;;;;;5.80;2.10;;;;;;;8.38;100.00;95644.94;5036834;28;20924;-70
2023/11/09 08:58:02;;;;;;;4.67;1.63;;;;;;;8.61;100.00;95646.50;5038189;28;20205;-69
2023/11/09 09:00:31;;;;;;;5.83;1.83;;;;;;;8.63;100.00;95644.53;5036588;28;20239;-70
2023/11/09 09:02:58;;;;;;;3.43;1.67;;;;;;;8.48;100.00;95646.31;5036099;28;20210;-70
2023/11/09 09:05:26;;;;;;;2.10;1.30;;;;;;;8.55;100.00;95647.25;5037321;28;20392;-72
2023/11/09 09:07:54;;;;;;;1.67;1.10;;;;;;;8.61;100.00;95648.34;5037127;28;20213;-72
2023/11/09 09:10:22;;;;;;;2.73;1.23;;;;;;;8.36;100.00;95643.50;5036550;28;20205;-73
2023/11/09 09:12:50;;;;;;;2.27;1.67;;;;;;;8.51;100.00;95648.59;5035983;28;20208;-70
2023/11/09 09:15:20;;;;;;;2.77;1.43;;;;;;;8.65;100.00;95642.53;5035539;28;20213;-72
2023/11/09 09:17:48;;;;;;;2.13;1.43;;;;;;;8.50;100.00;95649.59;5036131;28;20257;-72
2023/11/09 09:20:15;;;;;;;4.10;2.03;;;;;;;8.87;100.00;95657.44;5035325;28;20255;-73
2023/11/09 09:22:43;;;;;;;3.47;1.57;;;;;;;8.50;100.00;95654.84;5036686;28;20270;-73
2023/11/09 09:25:11;;;;;;;1.90;1.30;;;;;;;8.72;100.00;95653.97;5036342;28;20205;-71
2023/11/09 09:27:42;;;;;;;4.07;1.83;;;;;;;8.97;100.00;95650.06;5037115;28;20275;-67
2023/11/09 09:30:13;;;;;;;2.53;1.70;;;;;;;8.95;100.00;95651.25;5035757;28;20201;-73
2023/11/09 09:32:42;;;;;;;5.13;1.50;;;;;;;9.04;100.00;95647.53;5036371;28;20297;-72
2023/11/09 09:35:10;;;;;;;2.30;1.60;;;;;;;9.07;100.00;95644.56;5036428;28;20836;-71
2023/11/09 09:37:37;;;;;;;3.30;1.60;;;;;;;9.09;100.00;95654.69;5036839;28;20714;-72
2023/11/09 09:40:14;;;;;;;2.50;1.73;;;;;;;9.30;100.00;95653.97;5036036;28;20652;-70
2023/11/09 09:42:42;;;;;;;3.30;1.37;;;;;;;9.11;100.00;95665.03;5036598;28;20258;-70
2023/11/09 09:45:11;;;;;;;6.77;1.60;;;;;;;9.15;100.00;95668.91;5036850;28;20205;-71
2023/11/09 09:47:38;;;;;;;2.37;1.43;;;;;;;9.31;100.00;95663.47;5036628;28;20308;-72
2023/11/09 09:50:09;;;;;;;3.33;1.40;;;;;;;9.44;100.00;95664.44;5036830;28;20562;-70
2023/11/09 09:52:38;;;;;;;1.87;1.33;;;;;;;9.61;100.00;95667.69;5035507;28;20201;-71
2023/11/09 09:55:07;;;;;;;3.10;1.60;;;;;;;9.61;100.00;95659.78;5034770;28;20220;-70
2023/11/09 09:57:35;;;;;;;3.90;2.03;;;;;;;9.64;100.00;95657.63;5035531;28;20229;-73
2023/11/09 10:00:06;;;;;;;7.30;2.03;;;;;;;9.66;100.00;95658.25;5036431;28;20220;-74
2023/11/09 10:02:39;;;;;;;2.50;1.40;;;;;;;10.06;100.00;95649.81;5033166;28;20217;-70
2023/11/09 10:05:11;;;;;;;2.67;1.53;;;;;;;10.12;100.00;95651.66;5035202;28;20243;-71
2023/11/09 10:07:56;;;;;;;2.23;1.63;;;;;;;9.88;100.00;95637.03;5036230;28;20763;-71
2023/11/09 10:10:22;;;;;;;1.83;1.33;;;;;;;9.91;100.00;95641.91;5035424;28;20201;-72
2023/11/09 10:12:49;;;;;;;4.10;1.80;;;;;;;10.17;100.00;95634.31;5034395;28;20197;-70
2023/11/09 10:15:16;;;;;;;3.10;1.63;;;;;;;10.10;100.00;95630.00;5036348;28;20204;-73
2023/11/09 10:17:43;;;;;;;4.17;2.20;;;;;;;10.40;100.00;95634.94;5035223;28;21216;-73
2023/11/09 10:20:14;;;;;;;4.43;1.67;;;;;;;10.46;100.00;95634.16;5035861;28;20221;-71
2023/11/09 10:22:41;;;;;;;11.20;2.30;;;;;;;10.36;100.00;95628.38;5035893;28;20207;-70
2023/11/09 10:25:11;;;;;;;3.50;1.70;;;;;;;10.62;100.00;95631.25;5035295;28;20215;-70
2023/11/09 10:27:37;;;;;;;2.97;1.33;;;;;;;10.45;100.00;95625.44;5035654;28;20229;-71
2023/11/09 10:30:06;;;;;;;3.30;1.67;;;;;;;10.37;100.00;95624.75;5034886;28;20320;-72
2023/11/09 10:32:35;;;;;;;3.33;1.57;;;;;;;10.37;100.00;95619.50;5035192;28;20247;-73
2023/11/09 10:35:02;;;;;;;2.30;1.60;;;;;;;10.69;100.00;95611.84;5034758;28;20217;-73
2023/11/09 10:37:33;;;;;;;3.03;2.10;;;;;;;10.61;100.00;95596.16;5035249;28;20587;-70
2023/11/09 10:40:05;;;;;;;1.90;1.40;;;;;;;10.32;100.00;95599.00;5035242;28;20915;-71
2023/11/09 10:42:33;;;;;;;2.87;1.90;;;;;;;10.48;100.00;95597.91;5034820;28;20278;-73
2023/11/09 10:45:02;;;;;;;2.97;1.87;;;;;;;10.72;100.00;95595.66;5034497;28;20285;-70
2023/11/09 10:47:31;;;;;;;4.03;1.53;;;;;;;10.52;100.00;95586.78;5035028;28;20337;-71
2023/11/09 10:49:58;;;;;;;2.17;1.30;;;;;;;10.60;100.00;95578.75;5035143;28;20255;-70
2023/11/09 10:52:26;;;;;;;2.17;1.50;;;;;;;10.61;100.00;95579.56;5034959;28;20219;-71
2023/11/09 10:54:55;;;;;;;2.17;1.00;;;;;;;10.87;100.00;95571.81;5033705;28;20722;-72
2023/11/09 10:57:23;;;;;;;2.60;1.33;;;;;;;10.75;100.00;95576.00;5034396;28;20252;-73
2023/11/09 10:59:50;;;;;;;2.87;1.40;;;;;;;10.74;100.00;95574.38;5034610;28;20575;-70
2023/11/09 11:02:19;;;;;;;2.93;1.67;;;;;;;10.83;100.00;95566.09;5034256;28;20205;-74
2023/11/09 11:04:50;;;;;;;3.80;1.80;;;;;;;10.95;100.00;95557.44;5033996;28;20208;-71
2023/11/09 11:07:20;;;;;;;2.13;1.30;;;;;;;10.89;100.00;95540.81;5033244;28;20229;-71
2023/11/09 11:09:51;;;;;;;1.60;1.30;;;;;;;10.87;100.00;95554.19;5033942;28;20246;-74
2023/11/09 11:12:19;;;;;;;2.60;1.53;;;;;;;11.15;100.00;95547.81;5035393;28;20201;-72
2023/11/09 11:14:49;;;;;;;2.17;1.17;;;;;;;11.04;100.00;95543.09;5033372;28;20571;-71
2023/11/09 11:17:28;;;;;;;7.13;1.00;;;;;;;11.12;100.00;95542.13;5034549;28;20221;-72
2023/11/09 11:20:30;;;;;;;1.10;0.80;;;;;;;11.27;100.00;95540.97;5033986;28;20315;-71
2023/11/09 11:23:24;;;;;;;1.67;0.83;;;;;;;11.30;100.00;95540.59;5031517;28;20201;-71
2023/11/09 11:25:58;;;;;;;1.80;1.00;;;;;;;11.44;100.00;95536.16;5034572;28;20228;-70
2023/11/09 11:28:27;;;;;;;1.60;0.90;;;;;;;11.47;100.00;95536.56;5035043;28;20205;-73
2023/11/09 11:31:00;;;;;;;1.37;0.83;;;;;;;11.30;100.00;95539.75;5034449;28;20200;-71
2023/11/09 11:33:27;;;;;;;4.03;1.90;;;;;;;11.22;100.00;95537.28;5034876;28;20980;-73
2023/11/09 11:35:56;;;;;;;2.07;1.17;;;;;;;11.55;100.00;95535.59;5035187;28;20232;-73
2023/11/09 11:38:26;;;;;;;1.30;1.20;;;;;;;11.64;100.00;95529.94;5034461;28;20237;-72
2023/11/09 11:41:00;;;;;;;0.73;0.73;;;;;;;11.73;100.00;95531.38;5034416;28;20220;-71